Time;durP1;ratioP1;P1;durP2;ratioP2;P2;SDS_P1;SDS_P2;PMS_P1;PMS_P2;Temp;Humidity;BMP_temperature;BMP_pressure;BME280_temperature;BME280_humidity;BME280_pressure;Samples;Min_cycle;Max_cycle;Signal;HPM_P1;HPM_P2
2023/06/05 00:00:19;;;;;;;3.08;2.70;;;;;;;20.28;72.94;100830.16;4994758;28;20053;-79
2023/06/05 00:03:04;;;;;;;3.97;2.67;;;;;;;20.18;74.82;100831.63;4994323;28;20057;-78
2023/06/05 00:05:49;;;;;;;4.32;3.20;;;;;;;20.19;74.60;100822.16;4994610;28;20161;-78
2023/06/05 00:08:33;;;;;;;7.85;3.30;;;;;;;20.24;75.08;100827.34;4993117;28;20054;-79
2023/06/05 00:11:18;;;;;;;;;;;;;;;20.37;74.12;100825.94;4994657;28;20513;-78
2023/06/05 00:14:03;;;;;;;5.05;3.22;;;;;;;20.74;71.81;100833.41;4994538;28;19914;-78
2023/06/05 00:16:50;;;;;;;8.05;4.22;;;;;;;20.35;74.32;100828.31;4995736;28;20053;-78
2023/06/05 00:19:34;;;;;;;7.18;4.70;;;;;;;20.34;73.98;100825.91;4993160;28;20049;-78
2023/06/05 00:22:20;;;;;;;10.10;4.38;;;;;;;20.31;74.73;100823.91;4994387;28;20049;-78
2023/06/05 00:25:06;;;;;;;10.00;4.80;;;;;;;20.28;75.07;100825.41;4994431;28;20057;-78
2023/06/05 00:27:51;;;;;;;6.60;4.70;;;;;;;20.15;75.87;100826.88;4979986;28;20049;-79
2023/06/05 00:30:38;;;;;;;6.65;5.28;;;;;;;20.14;75.41;100816.97;4997762;28;20049;-77
2023/06/05 00:33:23;;;;;;;7.05;4.40;;;;;;;20.21;75.28;100828.13;4995326;28;20053;-78
2023/06/05 00:36:08;;;;;;;9.02;5.13;;;;;;;19.96;76.85;100819.53;4993896;28;20073;-77
2023/06/05 00:38:52;;;;;;;7.72;4.90;;;;;;;19.99;76.71;100820.75;4997314;28;20524;-77
2023/06/05 00:41:41;;;;;;;13.32;4.90;;;;;;;20.21;75.56;100824.56;4982059;28;20053;-77
2023/06/05 00:44:26;;;;;;;7.38;5.25;;;;;;;20.07;76.28;100830.69;4993139;28;20560;-78
2023/06/05 00:47:11;;;;;;;13.25;4.70;;;;;;;20.14;75.09;100827.22;4986581;28;20053;-77
2023/06/05 00:49:56;;;;;;;8.90;4.50;;;;;;;20.06;76.13;100823.59;4972260;28;20118;-77
2023/06/05 00:52:42;;;;;;;7.13;4.90;;;;;;;20.20;74.84;100823.75;4979745;28;20049;-77
2023/06/05 00:55:27;;;;;;;6.22;5.05;;;;;;;19.98;76.42;100827.44;4984014;28;20054;-77
2023/06/05 00:58:13;;;;;;;12.13;4.60;;;;;;;19.81;77.20;100825.28;4972488;28;20093;-77
2023/06/05 01:01:00;;;;;;;8.85;4.00;;;;;;;19.96;76.92;100832.56;4981803;28;20430;-80
2023/06/05 01:03:45;;;;;;;9.63;4.10;;;;;;;20.09;75.31;100828.38;4984959;28;20053;-78
2023/06/05 01:06:31;;;;;;;5.60;3.53;;;;;;;19.93;75.47;100825.81;4991717;28;20066;-78
2023/06/05 01:09:19;;;;;;;7.93;3.95;;;;;;;20.08;74.99;100829.53;4984351;28;20061;-78
2023/06/05 01:12:27;;;;;;;8.90;3.63;;;;;;;20.12;74.44;100827.59;4981906;28;20050;-78
2023/06/05 01:15:13;;;;;;;5.88;3.05;;;;;;;19.99;75.10;100826.28;4993633;28;20053;-78
2023/06/05 01:18:00;;;;;;;6.35;4.20;;;;;;;20.18;74.19;100826.09;4993287;28;20045;-78
2023/06/05 01:20:45;;;;;;;4.20;3.38;;;;;;;20.20;74.00;100821.00;4996315;28;20122;-78
2023/06/05 01:23:30;;;;;;;6.60;3.50;;;;;;;20.12;74.06;100816.56;4981927;28;20050;-78
2023/06/05 01:26:22;;;;;;;6.47;3.70;;;;;;;20.03;74.54;100819.63;4960489;28;20513;-78
2023/06/05 01:29:11;;;;;;;5.78;4.38;;;;;;;20.11;74.48;100808.66;4975754;28;20513;-78
2023/06/05 01:32:03;;;;;;;5.30;3.80;;;;;;;20.14;74.73;100814.22;4984954;28;20065;-78
2023/06/05 01:34:49;;;;;;;5.25;4.65;;;;;;;20.23;73.79;100817.47;4970996;28;20037;-79
2023/06/05 01:37:36;;;;;;;;;;;;;;;20.27;73.90;100820.25;4976218;28;20054;-78
2023/06/05 01:40:24;;;;;;;7.05;4.35;;;;;;;20.17;74.66;100813.47;4982870;28;19922;-79
2023/06/05 01:43:11;;;;;;;9.18;4.65;;;;;;;20.08;74.34;100821.25;5030719;22;20058;31
2023/06/05 01:45:58;;;;;;;7.80;4.50;;;;;;;19.86;76.01;100819.41;4939817;29;20059;-83
2023/06/05 01:48:44;;;;;;;16.17;4.68;;;;;;;20.07;74.80;100808.59;4933658;29;20058;-82
2023/06/05 01:51:29;;;;;;;6.75;4.30;;;;;;;19.70;77.48;100811.34;4939061;29;20047;-82
2023/06/05 01:54:15;;;;;;;5.05;3.30;;;;;;;19.98;76.01;100810.88;4932961;29;20055;-82
2023/06/05 01:57:00;;;;;;;9.30;4.85;;;;;;;19.60;78.01;100806.47;4934338;29;20565;-84
2023/06/05 01:59:45;;;;;;;9.15;5.25;;;;;;;19.43;79.01;100796.75;4919360;29;20523;-81
2023/06/05 02:02:30;;;;;;;6.97;4.80;;;;;;;19.38;79.85;100804.53;4918738;29;20414;-81
2023/06/05 02:05:21;;;;;;;9.00;5.28;;;;;;;19.54;79.06;100802.44;4933317;29;20059;-82
2023/06/05 02:08:09;;;;;;;11.70;5.60;;;;;;;19.54;78.48;100803.22;4932802;29;20039;-82
2023/06/05 02:10:54;;;;;;;10.40;4.88;;;;;;;19.67;79.08;100806.53;4938878;29;20070;-82
2023/06/05 02:13:43;;;;;;;9.82;5.78;;;;;;;19.82;77.78;100807.50;4906606;29;20118;-82
2023/06/05 02:16:28;;;;;;;7.57;5.30;;;;;;;19.53;80.16;100807.16;4937133;29;20051;-82
2023/06/05 02:19:13;;;;;;;8.75;5.85;;;;;;;19.78;79.14;100809.44;4941931;29;20050;-83
2023/06/05 02:21:58;;;;;;;6.38;5.18;;;;;;;19.86;78.46;100805.63;4916328;29;20055;-82
2023/06/05 02:24:44;;;;;;;5.95;4.63;;;;;;;19.81;78.56;100805.94;4891588;29;20048;-82
2023/06/05 02:27:29;;;;;;;8.85;4.65;;;;;;;19.57;80.08;100809.97;4921878;29;20122;-82
2023/06/05 02:30:15;;;;;;;12.18;5.30;;;;;;;19.55;79.99;100809.56;4922002;29;20047;-82
2023/06/05 02:33:02;;;;;;;10.27;5.47;;;;;;;19.66;79.25;100802.19;4918506;29;20051;-82
2023/06/05 02:35:47;;;;;;;13.38;5.82;;;;;;;19.71;79.47;100817.66;4919248;29;20043;-83
2023/06/05 02:38:32;;;;;;;9.02;5.22;;;;;;;19.73;79.43;100815.28;4904760;29;20063;-82
2023/06/05 02:41:17;;;;;;;10.63;5.20;;;;;;;19.82;78.71;100819.34;4903576;29;20055;-81
2023/06/05 02:44:02;;;;;;;8.32;5.15;;;;;;;19.82;78.80;100815.78;4900689;29;20043;-82
2023/06/05 02:46:47;;;;;;;7.63;5.40;;;;;;;19.87;78.27;100809.94;4918151;29;20428;-82
2023/06/05 02:49:32;;;;;;;7.22;5.10;;;;;;;19.71;78.38;100801.09;4929629;29;20063;-82
2023/06/05 02:52:18;;;;;;;12.07;4.97;;;;;;;19.64;79.65;100807.31;4940616;29;20419;-82
2023/06/05 02:55:05;;;;;;;8.30;5.68;;;;;;;19.78;78.37;100807.47;4932273;29;20403;-82
2023/06/05 02:57:50;;;;;;;7.90;5.38;;;;;;;19.69;79.12;100811.69;4936969;29;20447;-82
2023/06/05 03:00:41;;;;;;;9.65;5.30;;;;;;;19.50;80.68;100807.91;4934168;29;20111;-82
2023/06/05 03:03:26;;;;;;;10.07;5.88;;;;;;;19.36;80.78;100806.88;4939216;29;20055;-83
2023/06/05 03:06:11;;;;;;;6.93;5.82;;;;;;;19.38;80.99;100808.09;4914418;29;20059;-82
2023/06/05 03:09:01;;;;;;;5.80;5.20;;;;;;;19.38;80.90;100808.09;4941224;29;20412;-82
2023/06/05 03:11:46;;;;;;;6.55;5.70;;;;;;;19.29;81.58;100804.03;4923709;29;20059;-81
2023/06/05 03:14:31;;;;;;;10.50;5.13;;;;;;;19.36;81.47;100798.59;4935825;29;20573;-81
2023/06/05 03:17:16;;;;;;;8.23;5.95;;;;;;;19.40;81.63;100794.72;4927211;29;20055;-81
2023/06/05 03:20:01;;;;;;;7.60;6.20;;;;;;;19.36;81.33;100796.63;4910973;29;20047;-81
2023/06/05 03:22:46;;;;;;;9.50;6.10;;;;;;;19.51;79.88;100798.44;4909479;29;20519;-82
2023/06/05 03:25:32;;;;;;;9.07;6.40;;;;;;;19.52;80.17;100800.03;4899525;29;20051;-82
2023/06/05 03:28:18;;;;;;;10.68;6.90;;;;;;;19.45;79.75;100804.69;4931548;29;20063;-82
2023/06/05 03:31:03;;;;;;;7.32;6.28;;;;;;;19.51;80.17;100801.19;4941707;29;20047;-82
2023/06/05 03:33:52;;;;;;;7.03;5.57;;;;;;;19.50;79.84;100796.88;4933377;29;20423;-82
2023/06/05 03:36:39;;;;;;;9.88;6.28;;;;;;;19.48;79.70;100796.44;4901944;29;20048;-82
2023/06/05 03:39:26;;;;;;;9.32;6.32;;;;;;;19.44;79.98;100790.09;4936524;29;20055;-81
2023/06/05 03:42:12;;;;;;;8.70;6.28;;;;;;;19.41;81.29;100804.59;4926099;29;20056;-81
2023/06/05 03:44:57;;;;;;;10.70;6.82;;;;;;;19.47;79.90;100797.59;4908948;29;20067;-81
2023/06/05 03:47:46;;;;;;;10.10;6.38;;;;;;;19.42;80.14;100795.16;4930402;29;20107;-81
2023/06/05 03:50:33;;;;;;;12.98;7.28;;;;;;;19.50;79.38;100801.59;4933812;29;20051;-81
2023/06/05 03:53:19;;;;;;;8.88;6.68;;;;;;;19.50;79.51;100796.88;4922535;29;20047;-81
2023/06/05 03:56:04;;;;;;;11.85;7.55;;;;;;;19.50;80.16;100799.63;4926689;29;20048;-81
2023/06/05 03:58:54;;;;;;;10.75;6.20;;;;;;;19.50;79.58;100799.63;4907829;29;20408;-81
2023/06/05 04:01:38;;;;;;;12.60;6.85;;;;;;;19.53;79.62;100796.13;4913911;29;20410;-82
2023/06/05 04:04:23;;;;;;;13.77;6.50;;;;;;;19.53;79.71;100804.41;4930434;29;20047;-82
2023/06/05 04:07:09;;;;;;;11.63;6.43;;;;;;;19.45;79.22;100794.44;4930635;29;20059;-82
2023/06/05 04:09:54;;;;;;;16.90;7.70;;;;;;;19.53;79.45;100803.59;4918435;29;20063;-81
2023/06/05 04:12:39;;;;;;;;;;;;;;;19.48;80.24;100801.97;4932777;29;20059;-83
2023/06/05 04:15:25;;;;;;;;;;;;;;;19.45;80.54;100801.94;4934282;29;19915;-83
2023/06/05 04:18:11;;;;;;;;;;;;;;;19.51;79.97;100803.97;4921245;29;19915;-82
2023/06/05 04:20:56;;;;;;;;;;;;;;;19.54;80.27;100805.19;4921474;29;19915;-82
2023/06/05 04:23:40;;;;;;;;;;;;;;;19.54;80.09;100802.44;4906297;29;19915;-82
2023/06/05 04:26:26;;;;;;;;;;;;;;;19.54;80.12;100806.00;4924837;29;19919;-82
2023/06/05 04:29:15;;;;;;;;;;;;;;;19.49;80.08;100798.03;4916886;29;19915;-82
2023/06/05 04:32:00;;;;;;;;;;;;;;;19.33;80.97;100797.38;4902115;29;19915;-82
2023/06/05 04:34:45;;;;;;;;;;;;;;;19.48;79.89;100801.97;4919327;29;20302;-82
2023/06/05 04:37:29;;;;;;;;;;;;;;;19.47;79.79;100796.81;4918600;29;19915;-83
2023/06/05 04:40:17;;;;;;;;;;;;;;;19.48;79.31;100804.72;4928407;29;19915;-83
2023/06/05 04:43:03;;;;;;;;;;;;;;;19.46;79.96;100800.72;4936435;29;20376;-83
2023/06/05 04:45:48;;;;;;;;;;;;;;;19.47;80.12;100802.31;4942326;28;20379;-83
2023/06/05 04:48:34;;;;;;;;;;;;;;;18.98;82.84;100800.41;4915762;29;19915;-82
2023/06/05 04:51:18;;;;;;;;;;;;;;;18.83;84.29;100797.78;4929577;29;19915;-82
2023/06/05 04:54:05;;;;;;;;;;;;;;;18.97;84.85;100801.56;4935357;29;20390;-83
2023/06/05 04:56:50;;;;;;;;;;;;;;;19.60;82.55;100796.22;4907836;29;19916;-84
2023/06/05 04:59:36;;;;;;;;;;;;;;;20.15;77.78;100795.69;4916223;29;19915;-80
2023/06/05 05:02:22;;;;;;;;;;;;;;;20.20;77.04;100796.16;4936232;29;19915;-81
2023/06/05 05:05:08;;;;;;;;;;;;;;;20.38;76.16;100797.16;4935027;28;19919;-80
2023/06/05 05:07:53;;;;;;;;;;;;;;;20.37;75.28;100801.06;4916369;29;19923;-80
2023/06/05 05:10:39;;;;;;;;;;;;;;;20.23;75.20;100800.91;4924234;29;19914;-82
2023/06/05 05:13:24;;;;;;;;;;;;;;;20.36;76.83;100793.19;4938059;29;19919;-82
2023/06/05 05:16:10;;;;;;;;;;;;;;;20.45;75.60;100797.22;4940214;29;19914;-87
2023/06/05 05:18:55;;;;;;;;;;;;;;;20.12;75.37;100800.00;4934899;29;19915;-80
2023/06/05 05:21:40;;;;;;;;;;;;;;;20.20;75.73;100801.66;4921970;29;19914;-81
2023/06/05 05:24:25;;;;;;;;;;;;;;;20.43;74.55;100801.53;4932397;29;19919;-81
2023/06/05 05:27:10;;;;;;;;;;;;;;;20.35;73.80;100806.19;4928634;29;19919;-86
2023/06/05 05:29:55;;;;;;;;;;;;;;;20.51;72.74;100802.41;4923914;29;19915;-83
2023/06/05 05:32:40;;;;;;;;;;;;;;;20.63;71.37;100808.44;4942138;29;19919;-84
2023/06/05 05:35:26;;;;;;;;;;;;;;;20.62;73.08;100823.41;4914789;29;19923;-83
2023/06/05 05:38:10;;;;;;;;;;;;;;;20.54;71.61;100815.44;4934114;29;19918;-83
2023/06/05 05:40:55;;;;;;;;;;;;;;;20.31;73.47;100818.38;4935794;29;19938;-82
2023/06/05 05:43:40;;;;;;;;;;;;;;;20.24;73.78;100813.53;4939082;29;19915;-83
2023/06/05 05:46:24;;;;;;;;;;;;;;;20.15;76.23;100810.28;4944102;29;19919;-83
2023/06/05 05:49:08;;;;;;;;;;;;;;;20.38;73.38;100812.91;4942911;29;19914;-83
2023/06/05 05:51:53;;;;;;;;;;;;;;;20.43;73.46;100815.34;4934558;29;19919;-83
2023/06/05 05:54:37;;;;;;;;;;;;;;;20.25;74.92;100812.38;4934271;29;19915;-83
2023/06/05 05:57:22;;;;;;;;;;;;;;;20.32;73.96;100823.50;4931940;29;19914;-83
2023/06/05 06:00:12;;;;;;;;;;;;;;;20.39;75.05;100818.06;4936592;29;19915;-82
2023/06/05 06:02:56;;;;;;;;;;;;;;;20.33;73.89;100830.63;4938342;29;20374;-81
2023/06/05 06:05:41;;;;;;;;;;;;;;;20.31;74.07;100821.94;4941773;29;19915;-83
2023/06/05 06:08:26;;;;;;;;;;;;;;;20.02;75.00;100823.53;4934812;29;19923;-84
2023/06/05 06:11:11;;;;;;;;;;;;;;;20.01;75.17;100823.94;4940130;29;19915;-83
2023/06/05 06:13:56;;;;;;;;;;;;;;;19.87;76.16;100826.50;4944001;29;19915;-83
2023/06/05 06:16:43;;;;;;;;;;;;;;;19.67;78.48;100822.31;4943026;28;19915;-83
2023/06/05 06:19:28;;;;;;;;;;;;;;;19.70;77.44;100829.84;4910598;29;19915;-83
2023/06/05 06:22:13;;;;;;;;;;;;;;;19.63;77.98;100833.28;4924255;29;19919;-83
2023/06/05 06:24:57;;;;;;;;;;;;;;;19.63;77.86;100828.56;4923714;29;20298;-83
2023/06/05 06:27:43;;;;;;;;;;;;;;;19.38;78.28;100834.88;4925092;29;19919;-83
2023/06/05 06:30:28;;;;;;;;;;;;;;;19.37;78.46;100834.06;4924646;29;19915;-83
2023/06/05 06:33:13;;;;;;;;;;;;;;;19.35;79.07;100836.41;4929112;29;19946;-83
2023/06/05 06:36:05;;;;;;;;;;;;;;;19.47;77.91;100838.19;4924973;29;20375;-84
2023/06/05 06:38:50;;;;;;;;;;;;;;;19.33;78.63;100847.03;4923570;29;19915;-83
2023/06/05 06:41:36;;;;;;;5.47;2.55;;;;;;;19.59;78.69;100843.50;4918856;29;20427;-78
2023/06/05 06:44:21;;;;;;;3.25;1.90;;;;;;;19.77;77.66;100850.03;4932914;29;20056;-79
2023/06/05 06:47:07;;;;;;;2.85;2.22;;;;;;;19.68;76.58;100845.97;4932071;29;20063;-78
2023/06/05 06:49:53;;;;;;;4.60;1.83;;;;;;;19.23;78.85;100853.16;4934310;29;20042;-79
2023/06/05 06:52:39;;;;;;;5.53;2.30;;;;;;;19.74;76.89;100852.75;4937121;29;20526;-80
2023/06/05 06:55:24;;;;;;;3.35;2.15;;;;;;;19.61;75.03;100855.72;4953299;28;20054;-81
2023/06/05 06:58:08;;;;;;;5.00;1.75;;;;;;;19.42;76.69;100855.81;4930479;29;20058;-79
2023/06/05 07:00:53;;;;;;;2.78;2.10;;;;;;;19.76;76.38;100855.94;4935971;29;20415;-78
2023/06/05 07:03:38;;;;;;;2.30;1.52;;;;;;;20.27;74.43;100865.25;4947801;29;20051;-79
2023/06/05 07:06:23;;;;;;;4.32;2.28;;;;;;;19.11;78.03;100867.94;4933583;29;20050;-80
2023/06/05 07:09:08;;;;;;;8.38;2.42;;;;;;;19.44;78.65;100859.03;4957370;28;20055;-80
2023/06/05 07:11:54;;;;;;;4.53;2.10;;;;;;;19.79;75.50;100863.47;4921654;29;20055;-80
2023/06/05 07:14:40;;;;;;;5.35;2.20;;;;;;;19.67;76.83;100856.22;4922721;29;20513;-80
2023/06/05 07:17:27;;;;;;;1.92;1.45;;;;;;;19.60;76.81;100858.88;4935003;29;20051;-81
2023/06/05 07:20:12;;;;;;;5.22;1.60;;;;;;;19.72;76.38;100852.31;4937597;29;20059;-80
2023/06/05 07:22:56;;;;;;;3.70;2.22;;;;;;;19.72;75.38;100853.13;4934948;29;20047;-80
2023/06/05 07:25:41;;;;;;;3.70;1.67;;;;;;;19.43;77.66;100862.94;4935030;29;20052;-80
2023/06/05 07:28:26;;;;;;;2.90;1.67;;;;;;;19.64;76.69;100860.53;4947376;29;20078;-79
2023/06/05 07:31:11;;;;;;;3.33;1.65;;;;;;;19.61;76.27;100861.25;4934409;29;20051;-79
2023/06/05 07:33:55;;;;;;;3.20;2.28;;;;;;;19.47;77.52;100858.28;4915525;29;20055;-80
2023/06/05 07:36:40;;;;;;;6.70;2.00;;;;;;;19.77;77.36;100861.06;4942547;28;20054;-79
2023/06/05 07:39:25;;;;;;;3.17;1.90;;;;;;;19.81;76.05;100866.66;4913650;29;20047;-79
2023/06/05 07:42:10;;;;;;;3.88;1.42;;;;;;;20.13;75.35;100867.84;4931003;29;20047;-80
2023/06/05 07:44:54;;;;;;;2.22;1.50;;;;;;;19.81;76.80;100861.91;5007881;22;20049;-77
2023/06/05 07:47:39;;;;;;;2.70;1.40;;;;;;;20.19;75.77;100863.59;4984311;28;20073;-78
2023/06/05 07:50:25;;;;;;;1.77;1.40;;;;;;;20.38;73.91;100862.66;5002958;28;20045;-75
2023/06/05 07:53:10;;;;;;;2.88;1.80;;;;;;;20.28;73.66;100868.81;5012280;28;20056;-77
2023/06/05 07:55:55;;;;;;;5.18;1.23;;;;;;;20.55;73.43;100870.34;5015126;28;20049;-77
2023/06/05 07:58:41;;;;;;;6.75;1.63;;;;;;;20.76;72.54;100876.09;5013657;28;20056;-77
2023/06/05 08:01:27;;;;;;;6.43;3.08;;;;;;;20.61;70.89;100870.78;4978087;28;20070;-78
2023/06/05 08:04:12;;;;;;;3.58;1.42;;;;;;;20.22;74.17;100871.09;4976370;28;20054;-77
2023/06/05 08:06:57;;;;;;;2.22;1.58;;;;;;;19.87;74.80;100868.69;4977682;28;20057;-78
2023/06/05 08:09:41;;;;;;;3.53;1.40;;;;;;;19.59;76.61;100866.38;5010648;28;20060;-76
2023/06/05 08:12:26;;;;;;;3.20;1.27;;;;;;;19.75;77.17;100859.88;4978192;28;20058;-76
2023/06/05 08:15:11;;;;;;;1.92;1.23;;;;;;;19.48;76.97;100867.38;4985563;28;20066;-76
2023/06/05 08:17:56;;;;;;;6.00;1.30;;;;;;;19.66;76.95;100873.16;5007574;28;20049;-77
2023/06/05 08:20:41;;;;;;;5.45;1.08;;;;;;;19.48;77.87;100864.59;5019988;28;20571;-78
2023/06/05 08:23:26;;;;;;;3.15;1.63;;;;;;;19.83;77.49;100867.88;5032086;28;20056;-78
2023/06/05 08:26:11;;;;;;;4.97;1.42;;;;;;;19.99;76.56;100862.16;5002823;28;20418;-77
2023/06/05 08:28:56;;;;;;;3.35;0.98;;;;;;;20.17;76.27;100863.16;5026538;28;20049;-79
2023/06/05 08:31:40;;;;;;;2.28;1.48;;;;;;;20.39;73.97;100873.31;4979288;28;20054;-78
2023/06/05 08:34:25;;;;;;;2.92;1.63;;;;;;;20.18;74.43;100875.00;4979115;28;20410;-78
2023/06/05 08:37:11;;;;;;;3.35;1.45;;;;;;;20.02;75.84;100867.72;4968188;28;20057;-77
2023/06/05 08:39:58;;;;;;;2.40;1.23;;;;;;;20.15;74.21;100871.03;4980083;28;20069;-78
2023/06/05 08:42:43;;;;;;;1.85;1.20;;;;;;;19.99;74.58;100870.44;4993524;28;20057;-77
2023/06/05 08:45:30;;;;;;;5.47;1.85;;;;;;;19.97;75.73;100870.00;5002769;28;20049;-78
2023/06/05 08:48:19;;;;;;;2.22;1.25;;;;;;;19.94;75.55;100868.00;5015163;28;20437;-78
2023/06/05 08:51:09;;;;;;;4.35;1.50;;;;;;;19.93;76.34;100863.66;4991660;28;20042;-78
2023/06/05 08:53:56;;;;;;;4.00;1.65;;;;;;;20.25;75.78;100875.09;4991378;28;20045;-79
2023/06/05 08:56:42;;;;;;;2.95;1.27;;;;;;;20.40;75.42;100877.69;5005450;28;20049;-77
2023/06/05 08:59:27;;;;;;;3.65;1.77;;;;;;;20.32;75.26;100881.53;5021485;28;20052;-79
2023/06/05 09:02:12;;;;;;;5.93;2.40;;;;;;;20.34;75.01;100879.19;4996303;28;20045;-78
2023/06/05 09:05:00;;;;;;;2.75;2.00;;;;;;;20.39;74.29;100870.56;5004636;28;20405;-78
2023/06/05 09:07:45;;;;;;;2.00;1.80;;;;;;;20.56;73.69;100876.66;5001666;28;20045;-78
2023/06/05 09:10:30;;;;;;;4.32;2.63;;;;;;;20.63;73.09;100874.75;4993440;28;20046;-78
2023/06/05 09:13:15;;;;;;;4.28;2.75;;;;;;;20.45;73.14;100877.34;5009423;28;20062;-78
2023/06/05 09:16:00;;;;;;;3.42;2.38;;;;;;;20.17;74.77;100882.50;4996060;28;20065;-77
2023/06/05 09:18:55;;;;;;;2.60;1.80;;;;;;;20.18;74.55;100875.00;4995884;28;20061;-78
2023/06/05 09:21:40;;;;;;;2.15;1.65;;;;;;;20.14;74.84;100883.25;4997257;28;20421;-77
2023/06/05 09:24:27;;;;;;;4.30;2.30;;;;;;;20.35;74.77;100880.00;4994594;28;20054;-76
2023/06/05 09:27:16;;;;;;;7.40;3.00;;;;;;;20.52;73.37;100879.38;4992498;28;20057;-77
2023/06/05 09:30:04;;;;;;;4.22;2.10;;;;;;;20.55;73.02;100878.63;4995284;28;20053;-76
2023/06/05 09:32:50;;;;;;;3.60;2.53;;;;;;;20.68;72.57;100887.44;4993591;28;20402;-77
2023/06/05 09:35:38;;;;;;;2.55;1.65;;;;;;;20.69;73.62;100883.50;4993686;28;20045;-77
2023/06/05 09:38:27;;;;;;;3.85;2.58;;;;;;;20.92;72.28;100881.38;4993351;28;20053;-77
2023/06/05 09:41:18;;;;;;;2.85;1.55;;;;;;;21.03;72.39;100873.94;4990002;28;20951;-78
2023/06/05 09:44:07;;;;;;;3.42;2.97;;;;;;;20.83;73.59;100875.34;4995510;28;20045;-76
2023/06/05 09:46:56;;;;;;;4.63;3.25;;;;;;;20.68;74.84;100868.09;5014363;28;20702;-79
2023/06/05 09:49:41;;;;;;;4.43;2.90;;;;;;;20.77;73.34;100874.91;4992700;28;20064;-76
2023/06/05 09:52:25;;;;;;;3.80;2.45;;;;;;;20.50;74.69;100870.69;4977991;28;20049;-76
2023/06/05 09:55:10;;;;;;;2.58;1.50;;;;;;;20.74;74.04;100870.13;4978256;28;20057;-78
2023/06/05 09:57:59;;;;;;;4.45;2.70;;;;;;;20.76;73.27;100878.06;4987743;28;20050;-76
2023/06/05 10:00:45;;;;;;;3.22;2.10;;;;;;;20.71;73.99;100878.41;4990935;28;20049;-77
2023/06/05 10:03:31;;;;;;;5.05;2.10;;;;;;;20.59;75.00;100876.69;5007177;28;20065;-76
2023/06/05 10:06:23;;;;;;;2.60;1.50;;;;;;;20.86;73.18;100875.41;4992709;28;20402;-78
2023/06/05 10:09:09;;;;;;;3.70;2.60;;;;;;;21.03;73.12;100881.47;4995236;28;20053;-77
2023/06/05 10:11:55;;;;;;;4.50;2.75;;;;;;;20.84;73.10;100871.41;4994424;28;20053;-77
2023/06/05 10:14:42;;;;;;;3.58;2.10;;;;;;;20.80;74.09;100873.34;4998198;28;20069;-77
2023/06/05 10:17:27;;;;;;;5.55;2.83;;;;;;;20.65;75.48;100866.91;4994429;28;20057;-77
2023/06/05 10:20:12;;;;;;;3.67;2.40;;;;;;;20.68;73.80;100870.84;4981269;28;20053;-77
2023/06/05 10:22:57;;;;;;;3.38;2.13;;;;;;;20.70;71.47;100869.31;4991802;28;20042;-75
2023/06/05 10:25:42;;;;;;;2.00;1.40;;;;;;;20.76;71.88;100867.00;4976433;28;20057;-77
2023/06/05 10:28:53;;;;;;;1.00;0.80;;;;;;;20.31;68.93;100868.91;4978906;28;20126;-76
2023/06/05 10:31:57;;;;;;;1.65;1.00;;;;;;;20.20;69.68;100873.47;4996600;28;20046;-77
2023/06/05 10:35:07;;;;;;;7.47;1.63;;;;;;;20.19;68.88;100874.63;4995514;28;20053;-78
2023/06/05 10:38:17;;;;;;;4.10;1.33;;;;;;;20.24;69.51;100870.75;4997477;28;20046;-77
2023/06/05 10:41:04;;;;;;;1.20;0.77;;;;;;;20.66;69.65;100868.50;4998155;28;20071;-77
2023/06/05 10:43:51;;;;;;;4.03;1.13;;;;;;;20.84;68.65;100868.66;4998414;28;20049;-77
2023/06/05 10:46:36;;;;;;;2.78;1.65;;;;;;;20.94;69.44;100870.72;4999444;28;20060;-77
2023/06/05 10:49:21;;;;;;;25.88;1.77;;;;;;;20.90;69.67;100867.13;4995603;28;20413;-77
2023/06/05 10:52:35;;;;;;;2.88;1.05;;;;;;;21.18;69.29;100878.44;5003227;28;20053;-76
2023/06/05 10:55:22;;;;;;;2.03;1.48;;;;;;;21.25;69.92;100872.97;4997488;28;20523;-77
2023/06/05 10:58:10;;;;;;;1.75;1.05;;;;;;;21.26;68.72;100871.00;5013474;28;20057;-79
2023/06/05 11:01:19;;;;;;;5.65;1.48;;;;;;;21.41;70.45;100861.63;4999477;28;20049;-75
2023/06/05 11:04:03;;;;;;;2.47;1.40;;;;;;;21.42;66.55;100873.50;4986933;28;20046;-75
2023/06/05 11:07:21;;;;;;;0.90;0.70;;;;;;;21.38;69.59;100862.41;4981738;28;20061;-78
2023/06/05 11:10:15;;;;;;;2.75;1.20;;;;;;;21.52;67.64;100861.72;4979481;28;20050;-78
2023/06/05 11:13:01;;;;;;;1.30;1.10;;;;;;;21.52;69.56;100859.75;4997926;28;20046;-77
2023/06/05 11:15:46;;;;;;;2.17;1.30;;;;;;;21.33;66.23;100862.78;4997449;28;20277;-76
2023/06/05 11:18:32;;;;;;;4.88;1.65;;;;;;;21.42;68.54;100848.59;5001568;28;20516;-78
2023/06/05 11:21:17;;;;;;;2.05;1.27;;;;;;;21.51;68.93;100851.81;5012533;28;20053;-76
2023/06/05 11:24:15;;;;;;;2.70;1.52;;;;;;;21.53;69.31;100855.78;4999240;28;20057;-75
2023/06/05 11:27:02;;;;;;;2.53;1.80;;;;;;;21.54;69.90;100859.34;4996541;28;20061;-76
2023/06/05 11:29:48;;;;;;;2.00;1.40;;;;;;;21.58;69.86;100865.72;5009446;28;20045;-78
2023/06/05 11:32:33;;;;;;;3.78;1.70;;;;;;;21.43;67.65;100864.03;5017859;28;20064;-76
2023/06/05 11:35:21;;;;;;;2.08;1.13;;;;;;;21.39;69.07;100865.94;5030143;28;20539;-77
2023/06/05 11:38:07;;;;;;;5.03;1.80;;;;;;;21.34;69.41;100856.03;5016035;28;20524;-78
2023/06/05 11:40:53;;;;;;;10.05;2.67;;;;;;;21.51;69.75;100858.16;5002622;28;20053;-77
2023/06/05 11:43:45;;;;;;;5.47;1.90;;;;;;;21.52;69.95;100856.97;4983908;28;20053;-77
2023/06/05 11:46:38;;;;;;;3.38;2.15;;;;;;;21.40;70.23;100862.81;4984676;28;20042;-77
2023/06/05 11:49:28;;;;;;;3.05;1.90;;;;;;;21.49;69.47;100854.16;4998025;28;20425;-78
2023/06/05 11:52:18;;;;;;;2.67;1.90;;;;;;;21.52;66.01;100853.41;5001499;28;20084;-76
2023/06/05 11:55:21;;;;;;;2.65;1.92;;;;;;;21.57;68.29;100850.28;4997511;28;20049;-77
2023/06/05 11:58:08;;;;;;;3.80;1.85;;;;;;;21.53;68.29;100844.72;4998179;28;20065;-78
2023/06/05 12:01:04;;;;;;;3.28;1.83;;;;;;;21.49;67.56;100840.31;5001955;28;20179;-79
2023/06/05 12:04:02;;;;;;;4.97;2.15;;;;;;;21.52;68.36;100842.34;4991117;28;20158;-78
2023/06/05 12:06:47;;;;;;;3.55;1.88;;;;;;;21.35;67.21;100835.50;4990250;28;20041;-78
2023/06/05 12:09:33;;;;;;;4.68;1.90;;;;;;;21.33;67.90;100835.88;4990424;28;20050;-77
2023/06/05 12:12:18;;;;;;;2.88;2.08;;;;;;;21.55;66.45;100830.47;4989000;28;20528;-76
2023/06/05 12:15:23;;;;;;;2.50;1.75;;;;;;;21.54;65.25;100823.34;4988075;28;20049;-77
2023/06/05 12:18:08;;;;;;;2.65;1.67;;;;;;;21.27;65.17;100820.84;4985893;28;20053;-76
2023/06/05 12:20:53;;;;;;;3.95;2.42;;;;;;;21.30;66.78;100822.81;5009077;28;20057;-76
2023/06/05 12:23:38;;;;;;;2.45;1.48;;;;;;;21.32;64.96;100817.72;5001136;28;20049;-78
2023/06/05 12:26:22;;;;;;;3.22;1.90;;;;;;;21.32;65.87;100817.72;4983657;28;20041;-78
2023/06/05 12:29:07;;;;;;;3.67;1.77;;;;;;;21.37;66.28;100813.00;4978378;28;20057;-78
2023/06/05 12:31:52;;;;;;;2.65;1.80;;;;;;;21.43;66.81;100817.00;4988217;28;20520;-78
2023/06/05 12:34:51;;;;;;;5.13;1.98;;;;;;;21.53;65.36;100805.19;4992896;28;20073;-77
2023/06/05 12:37:38;;;;;;;3.30;2.33;;;;;;;21.46;65.65;100799.59;4976405;28;20528;-78
2023/06/05 12:40:23;;;;;;;3.47;1.70;;;;;;;21.57;66.85;100794.94;4975942;28;20073;-76
2023/06/05 12:43:17;;;;;;;2.30;1.90;;;;;;;21.59;66.87;100796.09;4975779;28;20050;-76
2023/06/05 12:46:02;;;;;;;3.00;2.07;;;;;;;21.54;68.30;100790.16;4961886;28;20057;-79
2023/06/05 12:48:47;;;;;;;3.15;1.65;;;;;;;21.62;66.49;100797.31;4974489;28;20062;-76
2023/06/05 12:51:32;;;;;;;3.13;2.08;;;;;;;21.49;67.19;100798.81;4974544;28;20046;-76
2023/06/05 12:54:18;;;;;;;2.20;1.50;;;;;;;21.36;68.44;100792.03;4961556;28;20076;-77
2023/06/05 12:57:07;;;;;;;4.85;2.15;;;;;;;21.45;66.95;100786.94;4975221;28;20050;-76
2023/06/05 12:59:55;;;;;;;3.50;1.70;;;;;;;21.47;67.43;100782.63;4963970;28;20046;-77
2023/06/05 13:02:48;;;;;;;5.40;1.88;;;;;;;21.57;67.66;100787.41;4974674;28;20050;-76
2023/06/05 13:05:32;;;;;;;1.92;1.60;;;;;;;21.48;67.82;100786.19;4974807;28;20045;-76
2023/06/05 13:08:17;;;;;;;3.22;1.63;;;;;;;21.51;68.25;100785.41;4977713;28;20119;-76